sensor_id;sensor_type;location;lat;lon;timestamp;temperature;humidity
3874;DHT22;1952;50.872;6.692;2022-09-03T00:32:20;16.70;99.90
3874;DHT22;1952;50.872;6.692;2022-09-03T00:34:52;16.80;99.90
3874;DHT22;1952;50.872;6.692;2022-09-03T00:37:23;16.80;99.90
3874;DHT22;1952;50.872;6.692;2022-09-03T00:39:53;16.90;99.90
3874;DHT22;1952;50.872;6.692;2022-09-03T00:42:35;16.80;99.90
3874;DHT22;1952;50.872;6.692;2022-09-03T00:45:20;16.80;99.90
3874;DHT22;1952;50.872;6.692;2022-09-03T00:48:04;16.70;99.90
3874;DHT22;1952;50.872;6.692;2022-09-03T00:50:46;16.70;99.90
3874;DHT22;1952;50.872;6.692;2022-09-03T00:53:27;16.70;99.90
3874;DHT22;1952;50.872;6.692;2022-09-03T00:58:41;16.90;99.90
3874;DHT22;1952;50.872;6.692;2022-09-03T01:03:53;16.80;99.90
3874;DHT22;1952;50.872;6.692;2022-09-03T01:11:45;16.90;99.90
3874;DHT22;1952;50.872;6.692;2022-09-03T01:14:27;16.80;99.90
3874;DHT22;1952;50.872;6.692;2022-09-03T01:17:00;16.90;99.90
3874;DHT22;1952;50.872;6.692;2022-09-03T01:22:36;16.80;99.90
3874;DHT22;1952;50.872;6.692;2022-09-03T01:32:56;16.60;99.90
3874;DHT22;1952;50.872;6.692;2022-09-03T01:35:33;16.50;99.90
3874;DHT22;1952;50.872;6.692;2022-09-03T01:38:18;16.40;99.90
3874;DHT22;1952;50.872;6.692;2022-09-03T01:40:59;16.30;99.90
3874;DHT22;1952;50.872;6.692;2022-09-03T01:49:08;16.20;99.90
3874;DHT22;1952;50.872;6.692;2022-09-03T01:59:51;16.40;99.90
3874;DHT22;1952;50.872;6.692;2022-09-03T02:15:21;16.30;99.90
3874;DHT22;1952;50.872;6.692;2022-09-03T02:17:52;16.20;99.90
3874;DHT22;1952;50.872;6.692;2022-09-03T02:22:55;16.20;99.90
3874;DHT22;1952;50.872;6.692;2022-09-03T02:30:29;16.20;99.90
3874;DHT22;1952;50.872;6.692;2022-09-03T03:00:44;16.50;99.90
3874;DHT22;1952;50.872;6.692;2022-09-03T03:33:15;16.40;99.90
3874;DHT22;1952;50.872;6.692;2022-09-03T03:45:42;16.50;99.90
3874;DHT22;1952;50.872;6.692;2022-09-03T03:53:09;16.60;99.90
3874;DHT22;1952;50.872;6.692;2022-09-03T04:33:24;17.00;99.90
3874;DHT22;1952;50.872;6.692;2022-09-03T04:36:05;17.00;99.90
3874;DHT22;1952;50.872;6.692;2022-09-03T04:48:54;17.00;99.90
3874;DHT22;1952;50.872;6.692;2022-09-03T05:21:40;17.20;99.90
3874;DHT22;1952;50.872;6.692;2022-09-03T05:34:07;17.40;99.90
3874;DHT22;1952;50.872;6.692;2022-09-03T06:33:22;17.60;99.90
3874;DHT22;1952;50.872;6.692;2022-09-03T06:35:53;17.60;99.90
3874;DHT22;1952;50.872;6.692;2022-09-03T06:40:53;18.00;99.90
3874;DHT22;1952;50.872;6.692;2022-09-03T06:43:22;18.00;99.90
3874;DHT22;1952;50.872;6.692;2022-09-03T06:45:54;18.10;99.90
3874;DHT22;1952;50.872;6.692;2022-09-03T06:48:24;18.20;99.90
3874;DHT22;1952;50.872;6.692;2022-09-03T06:50:56;18.20;99.90
3874;DHT22;1952;50.872;6.692;2022-09-03T06:53:25;18.20;99.90
3874;DHT22;1952;50.872;6.692;2022-09-03T07:59:24;23.00;99.90
3874;DHT22;1952;50.872;6.692;2022-09-03T08:01:52;23.30;99.50
3874;DHT22;1952;50.872;6.692;2022-09-03T08:04:22;23.80;96.70
3874;DHT22;1952;50.872;6.692;2022-09-03T08:42:30;23.80;99.90
3874;DHT22;1952;50.872;6.692;2022-09-03T08:45:01;24.00;99.30
3874;DHT22;1952;50.872;6.692;2022-09-03T08:47:32;24.70;97.30
3874;DHT22;1952;50.872;6.692;2022-09-03T08:50:21;24.60;94.10
3874;DHT22;1952;50.872;6.692;2022-09-03T08:52:55;24.00;95.20
3874;DHT22;1952;50.872;6.692;2022-09-03T08:55:30;24.10;95.10
3874;DHT22;1952;50.872;6.692;2022-09-03T08:58:02;23.30;97.30
3874;DHT22;1952;50.872;6.692;2022-09-03T09:00:46;22.70;99.90
3874;DHT22;1952;50.872;6.692;2022-09-03T09:03:35;23.50;99.50
3874;DHT22;1952;50.872;6.692;2022-09-03T09:06:18;25.00;95.30
3874;DHT22;1952;50.872;6.692;2022-09-03T09:09:01;24.70;94.30
3874;DHT22;1952;50.872;6.692;2022-09-03T09:11:39;25.10;94.50
3874;DHT22;1952;50.872;6.692;2022-09-03T09:14:19;25.40;92.40
3874;DHT22;1952;50.872;6.692;2022-09-03T09:16:58;25.40;91.30
3874;DHT22;1952;50.872;6.692;2022-09-03T09:19:37;26.10;91.20
3874;DHT22;1952;50.872;6.692;2022-09-03T09:22:10;25.60;88.70
3874;DHT22;1952;50.872;6.692;2022-09-03T09:24:46;25.80;89.60
3874;DHT22;1952;50.872;6.692;2022-09-03T09:30:00;25.50;90.10
3874;DHT22;1952;50.872;6.692;2022-09-03T09:40:09;26.00;91.80
3874;DHT22;1952;50.872;6.692;2022-09-03T09:45:10;26.40;85.80
3874;DHT22;1952;50.872;6.692;2022-09-03T09:47:45;27.80;83.00
3874;DHT22;1952;50.872;6.692;2022-09-03T09:50:19;27.80;79.10
3874;DHT22;1952;50.872;6.692;2022-09-03T09:52:59;25.80;83.60
3874;DHT22;1952;50.872;6.692;2022-09-03T10:32:03;26.90;91.50
3874;DHT22;1952;50.872;6.692;2022-09-03T10:34:43;27.30;90.40
3874;DHT22;1952;50.872;6.692;2022-09-03T10:37:24;28.40;88.00
3874;DHT22;1952;50.872;6.692;2022-09-03T10:40:20;29.60;80.20
3874;DHT22;1952;50.872;6.692;2022-09-03T10:43:20;29.10;74.30
3874;DHT22;1952;50.872;6.692;2022-09-03T10:49:14;29.70;72.80
3874;DHT22;1952;50.872;6.692;2022-09-03T10:51:51;29.60;73.00
3874;DHT22;1952;50.872;6.692;2022-09-03T10:54:38;29.10;73.10
3874;DHT22;1952;50.872;6.692;2022-09-03T10:57:20;31.00;68.70
3874;DHT22;1952;50.872;6.692;2022-09-03T11:00:18;30.90;65.90
3874;DHT22;1952;50.872;6.692;2022-09-03T11:06:09;29.50;68.00
3874;DHT22;1952;50.872;6.692;2022-09-03T11:08:54;29.30;69.30
3874;DHT22;1952;50.872;6.692;2022-09-03T11:11:39;29.60;68.40
3874;DHT22;1952;50.872;6.692;2022-09-03T11:32:46;28.40;77.70
3874;DHT22;1952;50.872;6.692;2022-09-03T11:35:26;29.80;72.70
3874;DHT22;1952;50.872;6.692;2022-09-03T11:40:33;29.80;70.00
3874;DHT22;1952;50.872;6.692;2022-09-03T11:43:07;30.70;67.30
3874;DHT22;1952;50.872;6.692;2022-09-03T11:48:32;31.80;61.10
3874;DHT22;1952;50.872;6.692;2022-09-03T11:53:33;33.10;58.30
3874;DHT22;1952;50.872;6.692;2022-09-03T12:33:15;31.50;58.30
3874;DHT22;1952;50.872;6.692;2022-09-03T12:35:55;31.70;57.80
3874;DHT22;1952;50.872;6.692;2022-09-03T12:38:26;31.30;58.00
3874;DHT22;1952;50.872;6.692;2022-09-03T12:40:55;30.50;58.90
3874;DHT22;1952;50.872;6.692;2022-09-03T12:43:28;30.20;60.50
3874;DHT22;1952;50.872;6.692;2022-09-03T12:48:55;28.50;64.70
3874;DHT22;1952;50.872;6.692;2022-09-03T12:51:36;28.40;67.00
3874;DHT22;1952;50.872;6.692;2022-09-03T12:54:09;28.70;66.50
3874;DHT22;1952;50.872;6.692;2022-09-03T12:56:51;29.00;66.60
3874;DHT22;1952;50.872;6.692;2022-09-03T12:59:22;28.60;66.50
3874;DHT22;1952;50.872;6.692;2022-09-03T13:01:55;28.60;67.20
3874;DHT22;1952;50.872;6.692;2022-09-03T13:04:35;29.30;66.40
3874;DHT22;1952;50.872;6.692;2022-09-03T13:07:06;29.10;67.00
3874;DHT22;1952;50.872;6.692;2022-09-03T13:09:45;28.40;68.50
3874;DHT22;1952;50.872;6.692;2022-09-03T13:12:23;28.70;69.20
3874;DHT22;1952;50.872;6.692;2022-09-03T13:15:05;28.60;68.80
3874;DHT22;1952;50.872;6.692;2022-09-03T13:17:46;28.40;68.50
3874;DHT22;1952;50.872;6.692;2022-09-03T13:20:32;28.20;70.80
3874;DHT22;1952;50.872;6.692;2022-09-03T13:23:52;28.30;70.30
3874;DHT22;1952;50.872;6.692;2022-09-03T13:26:28;28.40;69.80
3874;DHT22;1952;50.872;6.692;2022-09-03T13:32:02;29.40;68.60
3874;DHT22;1952;50.872;6.692;2022-09-03T13:34:38;28.80;69.40
3874;DHT22;1952;50.872;6.692;2022-09-03T13:37:24;28.70;69.90
3874;DHT22;1952;50.872;6.692;2022-09-03T13:39:56;28.70;70.40
3874;DHT22;1952;50.872;6.692;2022-09-03T13:42:34;29.00;70.10
3874;DHT22;1952;50.872;6.692;2022-09-03T13:45:10;29.60;69.30
3874;DHT22;1952;50.872;6.692;2022-09-03T13:47:56;30.50;67.10
3874;DHT22;1952;50.872;6.692;2022-09-03T13:50:46;31.10;64.50
3874;DHT22;1952;50.872;6.692;2022-09-03T13:53:31;30.50;64.10
3874;DHT22;1952;50.872;6.692;2022-09-03T13:56:06;30.30;65.40
3874;DHT22;1952;50.872;6.692;2022-09-03T13:58:44;30.80;64.50
3874;DHT22;1952;50.872;6.692;2022-09-03T14:01:24;31.40;63.10
3874;DHT22;1952;50.872;6.692;2022-09-03T14:04:00;31.50;61.40
3874;DHT22;1952;50.872;6.692;2022-09-03T14:06:39;31.70;60.00
3874;DHT22;1952;50.872;6.692;2022-09-03T14:09:21;32.60;58.50
3874;DHT22;1952;50.872;6.692;2022-09-03T14:12:01;33.30;56.80
3874;DHT22;1952;50.872;6.692;2022-09-03T14:14:40;32.80;56.80
3874;DHT22;1952;50.872;6.692;2022-09-03T14:17:15;31.80;58.10
3874;DHT22;1952;50.872;6.692;2022-09-03T14:19:47;30.90;60.50
3874;DHT22;1952;50.872;6.692;2022-09-03T14:22:22;29.70;62.10
3874;DHT22;1952;50.872;6.692;2022-09-03T14:24:57;28.80;65.50
3874;DHT22;1952;50.872;6.692;2022-09-03T14:27:28;28.30;67.80
3874;DHT22;1952;50.872;6.692;2022-09-03T14:30:03;27.40;71.00
3874;DHT22;1952;50.872;6.692;2022-09-03T14:32:52;27.10;73.60
3874;DHT22;1952;50.872;6.692;2022-09-03T14:35:34;26.70;76.30
3874;DHT22;1952;50.872;6.692;2022-09-03T14:38:29;26.60;78.80
3874;DHT22;1952;50.872;6.692;2022-09-03T14:41:05;26.30;82.00
3874;DHT22;1952;50.872;6.692;2022-09-03T14:44:01;26.40;83.40
3874;DHT22;1952;50.872;6.692;2022-09-03T14:46:42;26.50;85.60
3874;DHT22;1952;50.872;6.692;2022-09-03T14:49:36;26.20;87.90
3874;DHT22;1952;50.872;6.692;2022-09-03T14:52:26;26.10;90.50
3874;DHT22;1952;50.872;6.692;2022-09-03T14:55:14;26.10;92.10
3874;DHT22;1952;50.872;6.692;2022-09-03T14:58:07;26.00;93.50
3874;DHT22;1952;50.872;6.692;2022-09-03T15:00:50;25.80;99.90
3874;DHT22;1952;50.872;6.692;2022-09-03T15:03:32;25.90;99.90
3874;DHT22;1952;50.872;6.692;2022-09-03T15:06:24;25.70;99.90
3874;DHT22;1952;50.872;6.692;2022-09-03T15:09:13;25.70;99.90
3874;DHT22;1952;50.872;6.692;2022-09-03T15:12:00;25.60;94.90
3874;DHT22;1952;50.872;6.692;2022-09-03T15:14:40;25.30;99.90
3874;DHT22;1952;50.872;6.692;2022-09-03T15:17:29;25.20;99.90
3874;DHT22;1952;50.872;6.692;2022-09-03T15:20:15;24.70;99.90
3874;DHT22;1952;50.872;6.692;2022-09-03T15:23:11;24.50;99.90
3874;DHT22;1952;50.872;6.692;2022-09-03T15:26:28;24.30;99.90
3874;DHT22;1952;50.872;6.692;2022-09-03T15:33:00;23.40;99.90
3874;DHT22;1952;50.872;6.692;2022-09-03T15:35:51;23.00;99.90
3874;DHT22;1952;50.872;6.692;2022-09-03T15:38:32;22.90;99.90
3874;DHT22;1952;50.872;6.692;2022-09-03T15:41:39;22.90;99.90
3874;DHT22;1952;50.872;6.692;2022-09-03T15:44:33;23.20;99.90
3874;DHT22;1952;50.872;6.692;2022-09-03T15:47:40;23.10;99.90
3874;DHT22;1952;50.872;6.692;2022-09-03T15:50:52;23.50;99.90
3874;DHT22;1952;50.872;6.692;2022-09-03T15:53:32;23.70;99.90
3874;DHT22;1952;50.872;6.692;2022-09-03T15:56:33;23.70;99.90
3874;DHT22;1952;50.872;6.692;2022-09-03T15:59:11;23.60;99.90
3874;DHT22;1952;50.872;6.692;2022-09-03T16:01:46;23.70;99.90
3874;DHT22;1952;50.872;6.692;2022-09-03T16:04:41;23.80;99.90
3874;DHT22;1952;50.872;6.692;2022-09-03T16:07:22;23.70;99.90
3874;DHT22;1952;50.872;6.692;2022-09-03T16:10:21;23.60;99.90
3874;DHT22;1952;50.872;6.692;2022-09-03T16:12:58;23.20;99.90
3874;DHT22;1952;50.872;6.692;2022-09-03T16:15:31;22.90;99.90
3874;DHT22;1952;50.872;6.692;2022-09-03T16:18:05;24.90;99.90
3874;DHT22;1952;50.872;6.692;2022-09-03T16:20:56;22.50;99.90
3874;DHT22;1952;50.872;6.692;2022-09-03T16:23:38;22.50;99.90
3874;DHT22;1952;50.872;6.692;2022-09-03T16:26:15;22.60;99.90
3874;DHT22;1952;50.872;6.692;2022-09-03T16:28:51;22.70;99.90
3874;DHT22;1952;50.872;6.692;2022-09-03T16:31:28;22.60;99.90
3874;DHT22;1952;50.872;6.692;2022-09-03T16:34:12;22.70;99.90
3874;DHT22;1952;50.872;6.692;2022-09-03T16:36:50;22.60;99.90
3874;DHT22;1952;50.872;6.692;2022-09-03T16:39:31;22.60;99.90
3874;DHT22;1952;50.872;6.692;2022-09-03T16:42:09;22.60;99.90
3874;DHT22;1952;50.872;6.692;2022-09-03T16:45:08;22.50;99.90
3874;DHT22;1952;50.872;6.692;2022-09-03T16:47:58;22.40;99.90
3874;DHT22;1952;50.872;6.692;2022-09-03T16:50:43;22.50;99.90
3874;DHT22;1952;50.872;6.692;2022-09-03T16:53:25;22.40;99.90
3874;DHT22;1952;50.872;6.692;2022-09-03T16:56:23;22.40;99.90
3874;DHT22;1952;50.872;6.692;2022-09-03T16:59:25;22.40;99.90
3874;DHT22;1952;50.872;6.692;2022-09-03T17:02:27;22.40;99.90
3874;DHT22;1952;50.872;6.692;2022-09-03T17:05:20;22.60;99.90
3874;DHT22;1952;50.872;6.692;2022-09-03T17:08:10;22.50;99.90
3874;DHT22;1952;50.872;6.692;2022-09-03T17:10:52;22.40;99.90
3874;DHT22;1952;50.872;6.692;2022-09-03T17:13:57;22.50;99.90
3874;DHT22;1952;50.872;6.692;2022-09-03T17:16:51;22.40;99.90
3874;DHT22;1952;50.872;6.692;2022-09-03T17:19:44;22.30;99.90
3874;DHT22;1952;50.872;6.692;2022-09-03T17:22:41;22.20;99.90
3874;DHT22;1952;50.872;6.692;2022-09-03T17:25:31;22.30;99.90
3874;DHT22;1952;50.872;6.692;2022-09-03T17:28:10;22.30;99.90
3874;DHT22;1952;50.872;6.692;2022-09-03T17:30:57;22.10;99.90
3874;DHT22;1952;50.872;6.692;2022-09-03T17:33:39;22.10;99.90
3874;DHT22;1952;50.872;6.692;2022-09-03T17:36:14;21.90;99.90
3874;DHT22;1952;50.872;6.692;2022-09-03T17:42:00;21.70;99.90
3874;DHT22;1952;50.872;6.692;2022-09-03T17:45:05;21.60;99.90
3874;DHT22;1952;50.872;6.692;2022-09-03T17:48:15;21.50;99.90
3874;DHT22;1952;50.872;6.692;2022-09-03T17:50:56;21.50;99.90
3874;DHT22;1952;50.872;6.692;2022-09-03T17:53:32;24.50;99.90
3874;DHT22;1952;50.872;6.692;2022-09-03T18:46:02;20.50;99.90
3874;DHT22;1952;50.872;6.692;2022-09-03T18:49:09;20.50;99.90
3874;DHT22;1952;50.872;6.692;2022-09-03T18:52:02;20.50;99.90
3874;DHT22;1952;50.872;6.692;2022-09-03T18:55:00;20.50;99.90
3874;DHT22;1952;50.872;6.692;2022-09-03T18:58:06;20.40;99.90
3874;DHT22;1952;50.872;6.692;2022-09-03T19:01:04;20.10;99.90
3874;DHT22;1952;50.872;6.692;2022-09-03T19:04:14;19.20;99.90
3874;DHT22;1952;50.872;6.692;2022-09-03T19:07:25;19.70;99.90
3874;DHT22;1952;50.872;6.692;2022-09-03T19:10:18;19.60;99.90
3874;DHT22;1952;50.872;6.692;2022-09-03T19:13:17;19.40;99.90
3874;DHT22;1952;50.872;6.692;2022-09-03T19:16:21;19.50;99.90
3874;DHT22;1952;50.872;6.692;2022-09-03T19:19:44;19.90;99.90
3874;DHT22;1952;50.872;6.692;2022-09-03T19:28:51;19.70;99.90
3874;DHT22;1952;50.872;6.692;2022-09-03T19:39:02;19.70;99.90
3874;DHT22;1952;50.872;6.692;2022-09-03T19:42:00;19.80;99.90
3874;DHT22;1952;50.872;6.692;2022-09-03T19:44:58;19.60;99.90
3874;DHT22;1952;50.872;6.692;2022-09-03T19:48:07;19.30;99.90
3874;DHT22;1952;50.872;6.692;2022-09-03T19:51:02;19.00;99.90
3874;DHT22;1952;50.872;6.692;2022-09-03T19:54:05;18.80;99.90
3874;DHT22;1952;50.872;6.692;2022-09-03T19:56:53;18.90;99.90
3874;DHT22;1952;50.872;6.692;2022-09-03T19:59:56;18.80;99.90
3874;DHT22;1952;50.872;6.692;2022-09-03T20:08:31;18.80;99.90
3874;DHT22;1952;50.872;6.692;2022-09-03T20:11:34;18.80;99.90
3874;DHT22;1952;50.872;6.692;2022-09-03T20:14:09;18.60;99.90
3874;DHT22;1952;50.872;6.692;2022-09-03T20:16:49;18.70;99.90
3874;DHT22;1952;50.872;6.692;2022-09-03T20:19:29;18.70;99.90
3874;DHT22;1952;50.872;6.692;2022-09-03T20:22:09;18.80;99.90
3874;DHT22;1952;50.872;6.692;2022-09-03T20:24:51;18.90;99.90
3874;DHT22;1952;50.872;6.692;2022-09-03T20:27:34;18.80;99.90
3874;DHT22;1952;50.872;6.692;2022-09-03T20:30:14;18.70;99.90
3874;DHT22;1952;50.872;6.692;2022-09-03T20:33:20;18.70;99.90
3874;DHT22;1952;50.872;6.692;2022-09-03T20:36:13;18.40;99.90
3874;DHT22;1952;50.872;6.692;2022-09-03T20:42:06;18.10;99.90
3874;DHT22;1952;50.872;6.692;2022-09-03T20:45:05;18.30;99.90
3874;DHT22;1952;50.872;6.692;2022-09-03T20:48:07;18.40;99.90
3874;DHT22;1952;50.872;6.692;2022-09-03T20:50:47;18.60;99.90
3874;DHT22;1952;50.872;6.692;2022-09-03T20:56:40;18.60;99.90
3874;DHT22;1952;50.872;6.692;2022-09-03T20:59:24;18.60;99.90
3874;DHT22;1952;50.872;6.692;2022-09-03T21:02:03;18.90;99.90
3874;DHT22;1952;50.872;6.692;2022-09-03T21:04:49;18.70;99.90
3874;DHT22;1952;50.872;6.692;2022-09-03T21:07:31;18.60;99.90
3874;DHT22;1952;50.872;6.692;2022-09-03T21:10:23;18.70;99.90
3874;DHT22;1952;50.872;6.692;2022-09-03T21:13:02;18.60;99.90
3874;DHT22;1952;50.872;6.692;2022-09-03T21:15:48;18.60;99.90
3874;DHT22;1952;50.872;6.692;2022-09-03T21:18:30;18.80;99.90
3874;DHT22;1952;50.872;6.692;2022-09-03T21:21:10;18.70;99.90
3874;DHT22;1952;50.872;6.692;2022-09-03T21:23:45;18.70;99.90
3874;DHT22;1952;50.872;6.692;2022-09-03T21:26:19;18.50;99.90
3874;DHT22;1952;50.872;6.692;2022-09-03T21:29:00;18.60;99.90
3874;DHT22;1952;50.872;6.692;2022-09-03T21:31:39;18.50;99.90
3874;DHT22;1952;50.872;6.692;2022-09-03T21:34:18;18.50;99.90
3874;DHT22;1952;50.872;6.692;2022-09-03T21:36:48;18.60;99.90
3874;DHT22;1952;50.872;6.692;2022-09-03T21:39:27;18.60;99.90
3874;DHT22;1952;50.872;6.692;2022-09-03T21:42:02;18.50;99.90
3874;DHT22;1952;50.872;6.692;2022-09-03T21:44:45;18.40;99.90
3874;DHT22;1952;50.872;6.692;2022-09-03T21:47:17;18.40;99.90
3874;DHT22;1952;50.872;6.692;2022-09-03T21:50:04;18.80;99.90
3874;DHT22;1952;50.872;6.692;2022-09-03T21:52:48;18.80;99.90
3874;DHT22;1952;50.872;6.692;2022-09-03T21:55:20;18.90;99.90
3874;DHT22;1952;50.872;6.692;2022-09-03T21:58:03;18.80;99.90
3874;DHT22;1952;50.872;6.692;2022-09-03T22:03:06;18.90;99.90
3874;DHT22;1952;50.872;6.692;2022-09-03T22:05:49;19.10;99.90
3874;DHT22;1952;50.872;6.692;2022-09-03T22:08:30;19.00;99.90
3874;DHT22;1952;50.872;6.692;2022-09-03T22:11:11;18.70;99.90
3874;DHT22;1952;50.872;6.692;2022-09-03T22:13:51;18.30;99.90
3874;DHT22;1952;50.872;6.692;2022-09-03T22:16:33;18.10;99.90
3874;DHT22;1952;50.872;6.692;2022-09-03T22:21:43;17.90;99.90
3874;DHT22;1952;50.872;6.692;2022-09-03T22:24:36;17.80;99.90
3874;DHT22;1952;50.872;6.692;2022-09-03T22:27:25;17.90;99.90
3874;DHT22;1952;50.872;6.692;2022-09-03T22:30:04;18.10;99.90
3874;DHT22;1952;50.872;6.692;2022-09-03T22:32:47;18.30;99.90
3874;DHT22;1952;50.872;6.692;2022-09-03T22:35:48;18.10;99.90
3874;DHT22;1952;50.872;6.692;2022-09-03T22:41:52;18.20;99.90
3874;DHT22;1952;50.872;6.692;2022-09-03T22:44:36;18.10;99.90
3874;DHT22;1952;50.872;6.692;2022-09-03T22:47:23;17.00;99.90
3874;DHT22;1952;50.872;6.692;2022-09-03T22:50:02;17.60;99.90
3874;DHT22;1952;50.872;6.692;2022-09-03T22:52:42;17.60;99.90
3874;DHT22;1952;50.872;6.692;2022-09-03T22:55:16;17.50;99.90
3874;DHT22;1952;50.872;6.692;2022-09-03T22:57:56;17.70;99.90
3874;DHT22;1952;50.872;6.692;2022-09-03T23:00:29;18.00;99.90
3874;DHT22;1952;50.872;6.692;2022-09-03T23:03:02;18.30;99.90
3874;DHT22;1952;50.872;6.692;2022-09-03T23:05:44;18.60;99.90
3874;DHT22;1952;50.872;6.692;2022-09-03T23:08:16;18.70;99.90
3874;DHT22;1952;50.872;6.692;2022-09-03T23:10:59;18.50;99.90
3874;DHT22;1952;50.872;6.692;2022-09-03T23:13:35;18.60;99.90
3874;DHT22;1952;50.872;6.692;2022-09-03T23:16:11;18.60;99.90
3874;DHT22;1952;50.872;6.692;2022-09-03T23:18:43;18.30;99.90
3874;DHT22;1952;50.872;6.692;2022-09-03T23:21:22;18.00;99.90
3874;DHT22;1952;50.872;6.692;2022-09-03T23:23:57;17.60;99.90
3874;DHT22;1952;50.872;6.692;2022-09-03T23:26:32;17.60;99.90
3874;DHT22;1952;50.872;6.692;2022-09-03T23:29:11;18.00;99.90
3874;DHT22;1952;50.872;6.692;2022-09-03T23:34:11;17.60;99.90
3874;DHT22;1952;50.872;6.692;2022-09-03T23:36:50;17.50;99.90
3874;DHT22;1952;50.872;6.692;2022-09-03T23:42:49;17.20;99.90
3874;DHT22;1952;50.872;6.692;2022-09-03T23:45:26;17.10;99.90
3874;DHT22;1952;50.872;6.692;2022-09-03T23:48:01;17.10;99.90
3874;DHT22;1952;50.872;6.692;2022-09-03T23:50:38;13.50;99.90
3874;DHT22;1952;50.872;6.692;2022-09-03T23:53:31;17.10;99.90
